Weather observations for the past three days for
Fremont Municipal Airport
Metric (Imperial)
Date Time (edt) Wind (kph) Vis. (km) Weather Sky Cond. Temperature (ºC) Relative Humidity Wind Chill (°C) Heat Index (°C) Pressure Precipitation (cm)
Air Dwpt 6 hour altimeter (cm) sea level (mb) 1 hr 3 hr 6 hr
Max. Min.
07 14:55 SW 17 G 26 16.09 Overcast OVC070 10 -4 37% 8 75.9 0.0
07 14:35 W 22 G 30 16.09 Overcast BKN070 OVC100 10 -5 35% 7 75.92 0.0
07 14:15 W 19 G 31 16.09 Mostly Cloudy BKN070 BKN090 10 -5 35% 8 75.92 0.0
07 13:55 NW 19 G 28 16.09 Partly Cloudy FEW070 SCT090 11 -5 11.2 3.7 32% 75.92 0.0
07 13:35 W 15 G 37 16.09 Fair CLR 11 -4 35% 75.95 0.0
07 13:15 W 19 16.09 Fair CLR 11 -4 35% 75.95 0.0
07 12:55 W 20 G 35 16.09 A Few Clouds FEW050 FEW065 10 -4 37% 8 75.97 0.0
07 12:35 W 24 G 33 16.09 Mostly Cloudy SCT050 BKN065 BKN080 10 -3 40% 7 76 0.0
07 12:15 W 19 G 35 16.09 Mostly Cloudy BKN050 BKN065 BKN080 10 -3 40% 8 76.02 0.0
07 11:55 W 17 16.09 Mostly Cloudy BKN050 BKN065 9 -3 43% 7 76.02 0.0
07 11:35 W 22 16.09 Overcast BKN046 OVC055 9 -3 43% 6 76.02 0.0
07 11:15 W 13 G 26 16.09 Overcast BKN044 OVC055 9 -2 46% 7 76.02 0.0
07 10:55 W 13 16.09 Overcast FEW032 BKN041 OVC050 8 -2 50% 6 76.02 0.0
07 10:35 NW 15 16.09 Mostly Cloudy SCT045 BKN055 BKN065 8 0 57% 6 76.02 0.0
07 10:15 W 17 16.09 Overcast SCT041 OVC050 7 -1 57% 4 76.05 0.0
07 09:55 NW 13 16.09 Overcast FEW039 OVC060 7 -3 49% 5 76.05 0.0
07 09:35 W 11 16.09 Partly Cloudy FEW049 SCT060 8 0 57% 6 76.05 0.0
07 09:15 Vrbl 7 16.09 Fair CLR 7 0 61% 6 76.02 0.0
07 08:55 W 7 16.09 Fair CLR 6 1 71% 5 76.02 0.0
07 08:35 W 9 16.09 Fair CLR 5 1 76% 3 76.02 0.0
07 08:15 W 9 16.09 Fair CLR 5 0 70% 3 76 0.0
07 07:55 W 9 16.09 Fair CLR 4 0 6.3 0.1 75% 2 76 0.0
07 07:35 W 6 16.09 Fair CLR 3 -1 75% 76 0.0
07 07:15 W 6 16.09 Fair CLR 1 -2 81% 75.97 0.0
07 06:55 W 6 16.09 Fair CLR 1 -2 81% 75.95 0.0
07 06:35 W 4 16.09 Fair CLR 1 -2 81% 75.95 0.0
07 06:15 W 4 16.09 Fair CLR 1 -3 75% 75.95 0.0
07 05:55 W 6 16.09 Fair CLR 1 -3 75% 75.95 0.0
07 05:35 NW 4 16.09 Fair CLR 2 -2 75% 75.95 0.0
07 05:15 SW 4 16.09 Fair CLR 2 -3 70% 75.92 0.0
07 04:55 W 6 16.09 Fair CLR 3 -2 70% 75.95 0.0
07 04:35 W 9 16.09 Mostly Cloudy BKN070 4 -2 65% 2 75.95 0.0
07 04:15 W 9 16.09 Overcast OVC070 5 -2 61% 3 75.95 0.0
07 03:55 W 11 16.09 Overcast OVC070 5 -3 57% 3 75.95 0.0
07 03:35 NW 11 16.09 Overcast OVC080 6 -3 53% 4 75.97 0.0
07 03:15 NW 11 16.09 Overcast OVC080 6 -3 53% 4 75.97 0.0
07 02:55 NW 13 16.09 Overcast OVC080 6 -3 53% 4 75.97 0.0
07 02:35 NW 13 16.09 Overcast OVC080 6 -3 53% 4 76 0.0
07 02:15 NW 13 16.09 Overcast OVC080 6 -2 57% 4 76 0.0
07 01:55 NW 17 16.09 Overcast OVC080 6 -2 9.2 5.6 57% 3 76 0.0
07 01:35 NW 13 16.09 Overcast OVC080 6 -1 61% 4 76 0.0
07 01:15 NW 17 16.09 Overcast SCT060 OVC080 6 -1 61% 3 76 0.0
07 00:55 W 15 16.09 Overcast OVC060 7 -1 57% 5 76.02 0.0
07 00:35 W 7 16.09 Overcast BKN060 OVC090 6 -1 61% 5 76 0.0
07 00:15 SW 6 16.09 Overcast BKN065 OVC090 6 -1 61% 76 0.0
06 23:55 SW 6 16.09 Overcast BKN065 OVC080 6 -2 57% 76 0.0
06 23:35 SW 6 16.09 Overcast BKN065 OVC095 7 -2 53% 76 0.0
06 23:15 SW 6 16.09 Overcast BKN065 OVC100 7 -2 53% 76.02 0.0
06 22:55 SW 6 16.09 Overcast SCT065 OVC100 7 -3 49% 76.02 0.0
06 22:35 SW 6 16.09 Overcast SCT060 OVC100 7 -3 49% 76.02 0.0
06 22:15 W 6 16.09 Overcast BKN060 OVC100 7 -2 53% 76.02 0.0
06 21:55 SW 7 16.09 Overcast OVC100 8 -3 46% 7 76 0.0
06 21:35 SW 13 16.09 Mostly Cloudy FEW075 BKN090 8 -3 46% 6 76 0.0
06 21:15 W 9 16.09 Overcast FEW075 OVC090 8 -4 43% 7 76 0.0
06 20:55 W 9 16.09 Overcast OVC090 8 -4 43% 7 75.97 0.0
06 20:35 W 9 16.09 Overcast OVC090 9 -3 43% 8 75.97 0.0
06 20:15 W 13 16.09 Overcast OVC090 9 -3 43% 7 75.95 0.0
06 19:55 W 17 16.09 Overcast OVC090 9 -3 13.4 9.2 43% 7 75.95 0.0
06 19:35 W 17 16.09 Mostly Cloudy BKN090 9 -3 43% 7 75.95 0.0
06 19:15 W 19 16.09 Fair CLR 10 -3 40% 8 75.95 0.0
06 18:55 W 17 16.09 Fair CLR 11 -3 38% 75.95 0.0
06 18:35 W 20 16.09 Fair CLR 11 -4 35% 75.92 0.0
06 18:15 W 26 16.09 Fair CLR 12 -3 35% 75.92 0.0
06 17:55 W 24 16.09 Fair CLR 12 -4 33% 75.92 0.0
06 17:35 W 20 16.09 Fair CLR 12 -3 35% 75.92 0.0
06 17:15 W 26 G 31 16.09 Fair CLR 12 -4 33% 75.92 0.0
06 16:55 W 22 G 33 16.09 A Few Clouds FEW065 13 -3 33% 75.92 0.0
06 16:35 W 26 G 46 16.09 Partly Cloudy SCT065 13 -4 31% 75.92 0.0
06 16:15 W 19 G 33 16.09 Partly Cloudy SCT065 13 -4 31% 75.92 0.0
06 15:55 W 24 G 30 16.09 Mostly Cloudy BKN065 11 -5 32% 75.95 0.0
06 15:35 SW 26 G 33 16.09 Mostly Cloudy BKN065 13 -4 31% 75.92 0.0
06 15:15 W 19 G 37 16.09 Mostly Cloudy BKN065 13 -4 31% 75.92 0.0
06 14:55 W 19 G 41 16.09 Partly Cloudy SCT065 13 -4 31% 75.95 0.0
06 14:35 W 30 16.09 Partly Cloudy SCT065 13 -5 28% 75.95 0.0
06 14:15 W 26 G 37 16.09 Mostly Cloudy BKN065 13 -4 31% 75.95 0.0
06 13:55 W 26 G 35 16.09 Mostly Cloudy BKN065 13 -5 12.9 3.4 28% 75.95 0.0
06 13:35 W 22 16.09 Mostly Cloudy BKN065 12 -4 33% 75.97 0.0
06 13:15 W 19 G 33 16.09 Mostly Cloudy BKN065 BKN075 12 -4 33% 75.97 0.0
06 12:55 W 19 G 30 16.09 Overcast OVC065 11 -3 38% 75.97 0.0
06 12:35 W 15 G 30 16.09 Overcast OVC065 11 -4 35% 75.97 0.0
06 12:15 W 17 G 28 16.09 Overcast OVC065 10 -4 37% 8 75.97 0.0
06 11:55 NW 13 16.09 Overcast OVC065 11 -3 38% 75.97 0.0
06 11:35 NW 7 16.09 Mostly Cloudy BKN065 10 -3 40% 9 75.97 0.0
06 11:15 W 9 16.09 Partly Cloudy SCT065 10 -2 43% 9 75.97 0.0
06 10:55 SW 9 16.09 Fair CLR 10 -2 43% 9 76 0.0
06 10:35 Vrbl 6 16.09 Fair CLR 9 -2 46% 75.97 0.0
06 10:15 E 6 16.09 Fair CLR 9 -1 50% 75.97 0.0
06 09:55 Vrbl 4 16.09 Fair CLR 8 -1 53% 75.95 0.0
06 09:35 Vrbl 4 16.09 Fair CLR 7 0 61% 75.95 0.0
06 09:15 SE 6 16.09 Fair CLR 7 0 61% 75.95 0.0
06 08:55 E 7 16.09 Fair CLR 6 0 66% 5 75.95 0.0
06 08:35 E 9 16.09 Fair CLR 5 0 70% 3 75.95 0.0
06 08:15 E 9 16.09 Fair CLR 4 0 75% 2 75.92 0.0
06 07:55 E 9 16.09 Fair CLR 4 0 3.8 -0.4 75% 2 75.92 0.0
06 07:35 NE 15 16.09 Fair CLR 2 0 87% -2 75.87 0.0
06 07:15 NE 7 16.09 Fair CLR 2 -1 81% 0 75.84 0.0
06 06:55 NE 6 16.09 Fair CLR 1 -2 81% 75.84 0.0
06 06:35 NE 6 16.09 Fair CLR 0 -2 87% 75.84 0.0
06 06:15 N 6 16.09 Fair CLR 1 -2 81% 75.84 0.0
06 05:55 N 6 16.09 Fair CLR 1 -2 81% 75.84 0.0
06 05:35 N 6 16.09 Fair CLR 0 -2 87% 75.82 0.0
06 05:15 NW 7 16.09 Fair CLR 0 -2 87% -2 75.79 0.0
06 04:55 NW 7 16.09 Fair CLR 1 -2 81% -1 75.77 0.0
06 04:35 NW 7 16.09 Fair CLR 1 -2 81% -1 75.77 0.0
06 04:15 N 7 16.09 Fair CLR 1 -2 81% -1 75.77 0.0
06 03:55 NW 9 16.09 Fair CLR 1 -3 75% -2 75.77 0.0
06 03:35 NW 7 16.09 Fair CLR 2 -3 70% 0 75.77 0.0
06 03:15 W 6 16.09 Fair CLR 2 -3 70% 75.77 0.0
06 02:55 W 6 16.09 Fair CLR 2 -3 70% 75.74 0.0
06 02:35 W 4 16.09 Fair CLR 2 -2 75% 75.74 0.0
06 02:15 NW 4 16.09 Fair CLR 3 -2 70% 75.77 0.0
06 01:55 W 6 16.09 Fair CLR 4 -2 10.7 2 65% 75.79 0.0
06 01:35 W 6 16.09 Fair CLR 3 -2 70% 75.79 0.0
06 01:15 W 6 16.09 Fair CLR 3 -2 70% 75.77 0.0
06 00:55 NW 6 16.09 Fair CLR 3 -1 75% 75.74 0.0
06 00:35 NW 6 16.09 Fair CLR 4 -2 65% 75.74 0.0
06 00:15 W 6 16.09 Fair CLR 4 -2 65% 75.77 0.0
05 23:55 NW 6 16.09 Fair CLR 5 -1 66% 75.74 0.0
05 23:35 W 7 16.09 Fair CLR 5 -2 61% 4 75.74 0.0
05 23:15 W 6 16.09 Fair CLR 5 -2 61% 75.74 0.0
05 22:55 NW 9 16.09 Fair CLR 5 -1 66% 3 75.74 0.0
05 22:35 NW 7 16.09 Fair CLR 6 -1 61% 5 75.72 0.0
05 22:15 NW 6 16.09 Fair CLR 7 -1 57% 75.69 0.0
05 21:55 W 9 16.09 Fair CLR 7 -1 57% 5 75.67 0.0
05 21:35 W 6 16.09 Fair CLR 8 -2 50% 75.67 0.0
05 21:15 W 9 16.09 Fair CLR 8 -3 46% 7 75.64 0.0
05 20:55 W 11 16.09 Fair CLR 9 -3 43% 8 75.64 0.0
05 20:35 W 15 16.09 Fair CLR 9 -3 43% 7 75.64 0.0
05 20:15 W 19 16.09 Fair CLR 10 -3 40% 8 75.64 0.0
05 19:55 W 20 16.09 Fair CLR 11 -4 13.3 10.7 35% 75.62 0.0
05 19:35 W 15 16.09 Fair CLR 11 -3 38% 75.62 0.0
05 19:15 W 15 16.09 Fair CLR 11 -3 38% 75.59 0.0
05 18:55 W 17 G 31 16.09 Fair CLR 11 -4 35% 75.59 0.0
05 18:35 W 20 16.09 Fair CLR 12 -3 35% 75.59 0.0
05 18:15 NW 24 16.09 Fair CLR 13 -2 36% 75.59 0.0
05 17:55 W 20 16.09 Fair CLR 12 -3 35% 75.59 0.0
05 17:35 W 22 G 39 16.09 Fair CLR 13 -3 33% 75.59 0.0
05 17:15 W 20 16.09 Fair CLR 12 -2 38% 75.59 0.0
05 16:55 W 19 16.09 Fair CLR 12 -3 35% 75.62 0.0
05 16:35 W 22 G 33 16.09 Fair CLR 13 -3 33% 75.62 0.0
05 16:15 W 19 16.09 Fair CLR 12 -3 35% 75.62 0.0
05 15:55 W 20 G 31 16.09 Fair CLR 13 -2 36% 75.62 0.0
05 15:35 W 24 16.09 Fair CLR 12 -3 35% 75.62 0.0
05 15:15 NW 26 G 33 16.09 Fair CLR 13 -2 36% 75.59 0.0
05 14:55 W 30 G 39 16.09 Fair CLR 12 -2 38% 75.59 0.0
05 14:35 W 26 G 35 16.09 Fair CLR 12 -4 33% 75.59 0.0
05 14:15 W 28 G 37 16.09 Fair CLR 13 -3 33% 75.59 0.0
05 13:55 W 26 16.09 Fair CLR 13 -4 13.5 6.4 31% 75.57 0.0
05 13:35 W 26 G 35 16.09 Fair CLR 13 -4 31% 75.51 0.0
05 13:15 W 24 G 41 16.09 Fair CLR 13 -4 31% 75.51 0.0
05 12:55 W 24 G 37 16.09 Fair CLR 12 -5 30% 75.51 0.0
05 12:35 W 26 G 35 16.09 Fair CLR 13 -5 28% 75.51 0.0
05 12:15 W 22 G 37 16.09 Fair CLR 12 -5 30% 75.54 0.0
05 11:55 W 20 G 33 16.09 Fair CLR 12 -5 30% 75.54 0.0
05 11:35 W 24 16.09 Fair CLR 12 -5 30% 75.54 0.0
05 11:15 W 20 G 31 16.09 Fair CLR 12 -6 28% 75.57 0.0
05 10:55 NW 22 G 35 16.09 Fair CLR 12 -4 33% 75.57 0.0
05 10:35 W 20 G 31 16.09 Fair CLR 11 -5 32% 75.54 0.0
05 10:15 NW 22 G 28 16.09 Fair CLR 10 -4 37% 7 75.54 0.0
05 09:55 W 17 16.09 Fair CLR 9 -4 40% 7 75.54 0.0
05 09:35 NW 20 16.09 Fair CLR 9 -3 43% 6 75.51 0.0
05 09:15 NW 26 16.09 Fair CLR 10 -3 40% 7 75.49 0.0
05 08:55 W 20 16.09 Fair CLR 9 -2 46% 6 75.57 0.0
05 08:35 NW 22 G 31 16.09 Fair CLR 8 -1 53% 5 75.44 0.0
05 08:15 NW 19 16.09 Fair CLR 8 1 62% 5 75.41 0.0
05 07:55 NW 15 16.09 Fair CLR 7 3 12.4 4.7 76% 5 75.41 0.0
05 07:35 W 17 16.09 Fair CLR 6 3 81% 3 75.41 0.0
05 07:15 W 13 16.09 Fair CLR 6 3 81% 4 75.36 0.0
05 06:55 W 15 16.09 Fair CLR 6 3 81% 3 75.34 0.0
05 06:35 NW 4 16.09 Fair CLR 5 2 81% 75.29 0.0
05 06:15 W 6 16.09 Fair CLR 6 2 76% 75.29 0.0
05 05:55 W 4 16.09 Fair CLR 6 2 76% 75.26 0.0
05 05:35 N 6 16.09 Fair CLR 7 3 76% 75.23 0.0
05 05:15 NW 7 16.09 Fair CLR 7 3 76% 6 75.21 0.0
05 04:55 N 13 16.09 Fair CLR 8 3 71% 6 75.16 0.0
05 04:35 N 17 16.09 Fair CLR 9 3 66% 7 75.13 0.0
05 04:15 N 19 16.09 Fair CLR 9 3 66% 7 75.11 0.0
05 03:55 NW 19 16.09 Fair CLR 9 2 62% 7 75.06 0.0
05 03:35 W 9 16.09 A Few Clouds FEW120 11 2 54% 75.01 0.0
05 03:15 W 13 16.09 Partly Cloudy SCT120 11 2 54% 75.01 0.0
05 02:55 W 11 16.09 Partly Cloudy SCT120 12 2 51% 75.01 0.0
05 02:35 W 13 16.09 A Few Clouds FEW120 12 3 54% 75.01 0.0
05 02:15 W 13 16.09 Mostly Cloudy BKN110 12 3 54% 75.01 0.0
05 01:55 W 11 16.09 Mostly Cloudy BKN110 12 4 21.9 11.8 58% 74.98 0.0
05 01:35 W 15 16.09 Overcast OVC110 12 4 58% 74.98 0.0
05 01:15 W 19 16.09 Overcast OVC110 12 5 63% 74.96 0.0
05 00:55 W 9 16.09 Overcast FEW075 OVC095 12 6 67% 74.93 0.0
05 00:35 SW 6 16.09 Mostly Cloudy FEW080 BKN090 BKN110 12 7 72% 74.9 0.0
05 00:15 W 9 16.09 Light Rain FEW080 BKN100 13 7 67% 74.9 0.0
04 23:55 S 15 16.09 Overcast FEW080 OVC100 12 8 77% 74.93 0.0
04 23:35 W 7 16.09 Light Rain OVC090 13 8 72% 74.9 0.0
04 23:15 W 19 16.09 Light Rain FEW080 BKN090 OVC110 14 7 63% 74.88 0.0
04 22:55 SW 19 16.09 Mostly Cloudy BKN110 15 7 59% 74.85 0.0
04 22:35 SW 31 G 44 16.09 Partly Cloudy SCT110 15 7 59% 74.85 0.0
04 22:15 SW 22 G 31 16.09 A Few Clouds FEW120 17 8 56% 74.85 0.0
04 21:55 W 17 G 26 16.09 A Few Clouds FEW100 FEW110 18 9 56% 74.78 0.0
04 21:35 SW 19 G 30 16.09 Mostly Cloudy BKN100 BKN120 20 9 49% 74.75 0.0
04 21:15 SW 31 G 43 16.09 Mostly Cloudy BKN100 20 6 40% 74.68 0.0
04 20:55 SW 17 16.09 Mostly Cloudy BKN110 20 5 38% 74.68 0.0
04 20:35 SW 20 16.09 Partly Cloudy SCT100 21 5 35% 74.68 0.0
04 20:15 SW 22 16.09 Fair CLR 21 5 35% 74.65 0.0
04 19:55 SW 28 G 35 16.09 Fair CLR 22 5 23.4 21.7 33% 74.65 0.0
04 19:35 SW 30 16.09 Fair CLR 22 4 31% 74.65 0.0
04 19:15 SW 26 G 35 16.09 Fair CLR 23 5 31% 74.7 0.0
04 18:55 SW 22 G 43 16.09 Fair CLR 23 5 31% 74.73 0.0
04 18:35 SW 28 G 43 16.09 Fair CLR 23 5 31% 74.75 0.0
04 18:15 SW 39 G 46 16.09 Fair and Breezy CLR 23 5 31% 74.75 0.0
04 17:55 S 31 G 43 16.09 Fair CLR 22 6 36% 74.78 0.0
04 17:35 SW 26 G 44 16.09 Fair CLR 22 6 36% 74.8 0.0
04 17:15 SW 30 G 44 16.09 Fair CLR 23 6 33% 74.83 0.0
04 16:55 SW 26 G 43 16.09 Fair CLR 22 6 36% 74.85 0.0
04 16:35 SW 41 G 56 16.09 Fair and Breezy CLR 22 5 33% 74.85 0.0
04 16:15 SW 33 G 46 16.09 Fair and Breezy CLR 23 5 31% 74.88 0.0
04 15:55 SW 37 G 44 16.09 Fair and Breezy CLR 22 4 31% 74.88 0.0
04 15:35 SW 33 G 44 16.09 Fair and Breezy CLR 22 3 29% 74.9 0.0
04 15:15 SW 28 G 54 16.09 Fair CLR 22 1 25% 74.9 0.0
Date Time (edt) Wind (kph) Vis. (km) Weather Sky Cond. Air Dwpt Max. Min. Relative Humidity Wind Chill (°C) Heat Index (°C) altimeter (cm) sea level (mb) 1 hr 3 hr 6 hr
6 hour
Temperature (ºC) Pressure Precipitation (cm)